Highland Lake, Alabama
Current Conditions -  °F | °C
As of 6:55 PM on Tuesday 21 Oct 2014 (Local Time) from KGAD Reporting Station
Clear Clear  
Wind Chill: 61°   Ceiling: Unl
Heat Index: 61°   Visibility: 10mi
Dew Point: 46°   Wind: 3mph
Humidity: 59%   Direction: 330°NNW
Pressure: 30.01"   Gusts: NA
Location:  33.8959°N, 86.4894°W
Report Text: KGAD 212355Z 33003KT 10SM CLR 16/08 A3001 RMK AO1 10240 20160 402400060 52003
Loading
Personal Weather Stations






























Interactive Weather Map
Tropical Storm Tracking
New forecast layout! Learn more

10-Day Weather Forecast

Advertisements
Track Severe Weather on mobile